Jennerstown, PA

6:54 AM EST on December 07, 2016 (GMT -0500)
APRSWXNET | | Change Station

Elev 1970 ft 40.12 °N, 79.10 °W | Updated 25 minutes ago

Overcast
Overcast
33 °F
Feels Like 29 °F
N
4
Wind Variable Wind from WNW
Gusts 12.0 mph

Today
High -- | Low -- °F
--% Chance of Precip.
Yesterday
High -- | Low -- °F
Precip. -- in
Pressure 29.94 in
Visibility 7.0 miles
Clouds Few 600 ft
Overcast 1200 ft
Windchill 29 °F
Dew Point 32 °F
Humidity 96%
Rainfall in
Snow Depth Not available.
7:25 AM 4:50 PM
First Quarter, 51% visible
SPECI KJST 071133Z AUTO 27012KT 7SM FEW006 OVC012 00/M01 A2994 RMK AO2 T00001006 TSNO $
Pressure 29.94 in
Visibility 7.0 miles
Clouds Few 600 ft
Overcast 1200 ft
Windchill 29 °F
Dew Point 32 °F
Humidity 96%
Rainfall in
Snow Depth Not available.
7:25 AM 4:50 PM
First Quarter, 51% visible
SPECI KJST 071133Z AUTO 27012KT 7SM FEW006 OVC012 00/M01 A2994 RMK AO2 T00001006 TSNO $

10-Day Weather Forecast

Almanac

Astronomy

Dec. 07, 2016 Rise Set
Actual Time
Civil Twilight
Nautical Twilight
Astronomical Twilight
Moon
Length of Visible Light
Length of Day
Tomorrow will be .
, % of the Moon is Illuminated

Today's Extremes

State Highs State Lows

Community

WunderPhotos

Upload Photos

1,956,111 photos uploaded!

WunderBlog® & News

Nearby

Air Quality

  Air Quality AQ Index Pollutant
Not available.

Snow Depth

Station Depth Elevation

Earthquake Activity

City Distance Mag. Time & Date
Minimum magnitude displayed is 2.5.

Coastal Water Temperatures

Place Temperature

Stations

Nearby Weather Stations

Station Location Temp. Windchill Dew Point Humidity Wind Precip. Elev Updated Type
                   

Watches & Warnings

There are currently no watches in effect.